Time;durP1;ratioP1;P1;durP2;ratioP2;P2;SDS_P1;SDS_P2;PMS_P1;PMS_P2;Temp;Humidity;BMP_temperature;BMP_pressure;BME280_temperature;BME280_humidity;BME280_pressure;Samples;Min_cycle;Max_cycle;Signal;HPM_P1;HPM_P2
2023/04/07 00:01:07;;;;;;;5.42;4.87;;;;;;;3.34;65.38;100098.05;1762758;80;21113;-66
2023/04/07 00:03:34;;;;;;;6.17;5.17;;;;;;;3.36;65.71;100088.58;1768208;80;21005;-66
2023/04/07 00:06:00;;;;;;;4.08;3.02;;;;;;;3.39;65.55;100091.97;1762212;79;20990;-66
2023/04/07 00:08:27;;;;;;;4.28;3.67;;;;;;;3.42;65.66;100086.36;1769873;80;20975;-66
2023/04/07 00:10:53;;;;;;;4.53;3.60;;;;;;;3.45;65.55;100084.17;1768323;80;21073;-66
2023/04/07 00:13:20;;;;;;;3.70;3.40;;;;;;;3.46;66.26;100085.88;1771183;80;21022;-66
2023/04/07 00:15:46;;;;;;;3.17;2.77;;;;;;;3.45;65.85;100085.47;1764417;80;20998;-66
2023/04/07 00:18:12;;;;;;;2.90;2.70;;;;;;;3.43;66.00;100084.18;1764334;80;21011;-66
2023/04/07 00:20:40;;;;;;;3.75;3.35;;;;;;;3.39;66.00;100076.48;1769672;80;21007;-66
2023/04/07 00:23:06;;;;;;;4.50;3.77;;;;;;;3.44;66.21;100075.99;1769253;80;21166;-66
2023/04/07 00:25:32;;;;;;;5.22;3.55;;;;;;;3.40;67.13;100080.80;1764677;80;20983;-66
2023/04/07 00:27:58;;;;;;;4.65;4.05;;;;;;;3.42;66.50;100079.02;1766336;79;20958;-66
2023/04/07 00:30:24;;;;;;;3.35;2.80;;;;;;;3.46;66.75;100083.29;1763757;80;20927;-66
2023/04/07 00:32:51;;;;;;;4.37;3.62;;;;;;;3.39;66.40;100084.22;1760659;80;21670;-66
2023/04/07 00:35:17;;;;;;;4.87;2.70;;;;;;;3.23;66.55;100074.09;1767208;80;21633;-66
2023/04/07 00:37:43;;;;;;;3.98;3.10;;;;;;;3.26;66.85;100074.06;1765706;80;20966;-66
2023/04/07 00:40:10;;;;;;;4.28;3.80;;;;;;;3.26;67.38;100074.06;1770596;80;21088;-66
2023/04/07 00:42:36;;;;;;;5.30;4.50;;;;;;;3.25;67.56;100080.11;1766947;80;21494;-66
2023/04/07 00:45:03;;;;;;;4.00;3.60;;;;;;;3.32;67.58;100079.14;1762729;80;21458;-66
2023/04/07 00:47:29;;;;;;;3.63;3.33;;;;;;;3.35;67.57;100068.78;1766845;80;20967;-66
2023/04/07 00:49:55;;;;;;;3.83;3.42;;;;;;;3.41;67.73;100072.16;1765198;80;21515;-66
2023/04/07 00:52:27;;;;;;;4.37;3.98;;;;;;;3.42;67.09;100068.70;1766781;80;21636;-66
2023/04/07 00:54:53;;;;;;;4.00;3.60;;;;;;;3.40;67.51;100070.02;1765890;80;21732;-66
2023/04/07 00:57:19;;;;;;;4.87;3.50;;;;;;;3.39;68.51;100063.58;1768638;80;20987;-66
2023/04/07 00:59:45;;;;;;;3.98;3.52;;;;;;;3.35;67.74;100066.20;1767485;80;21535;-66
2023/04/07 01:02:27;;;;;;;4.75;3.70;;;;;;;3.41;67.96;100064.42;1769948;80;21077;-66
2023/04/07 01:05:16;;;;;;;4.72;4.30;;;;;;;3.34;68.32;100059.34;1767339;80;20911;-66
2023/04/07 01:07:57;;;;;;;3.40;3.10;;;;;;;3.36;68.60;100055.02;1767560;80;20971;-66
2023/04/07 01:10:33;;;;;;;4.55;4.10;;;;;;;3.42;68.39;100060.95;1763095;79;20947;-66
2023/04/07 01:13:15;;;;;;;4.08;3.65;;;;;;;3.49;68.81;100054.84;1755134;80;21515;-66
2023/04/07 01:15:44;;;;;;;4.75;3.95;;;;;;;3.56;68.59;100055.20;1756340;80;21035;-66
2023/04/07 01:18:14;;;;;;;4.17;3.77;;;;;;;3.59;69.67;100053.86;1761868;80;21041;-66
2023/04/07 01:20:43;;;;;;;4.78;4.17;;;;;;;3.54;69.65;100049.20;1761290;80;20980;-66
2023/04/07 01:23:12;;;;;;;4.80;4.35;;;;;;;3.49;69.12;100045.81;1764358;80;20943;-66
2023/04/07 01:26:15;;;;;;;4.78;4.35;;;;;;;3.50;69.13;100043.64;1766075;79;21018;-66
2023/04/07 01:28:57;;;;;;;5.28;4.53;;;;;;;3.55;68.99;100039.27;1706332;82;21030;-66
2023/04/07 01:31:26;;;;;;;4.85;4.35;;;;;;;3.59;69.55;100040.95;1708768;82;21123;-66
2023/04/07 01:33:56;;;;;;;3.87;3.52;;;;;;;3.59;69.86;100027.60;1705723;82;20951;-66
2023/04/07 01:36:23;;;;;;;4.50;4.05;;;;;;;3.58;69.19;100023.73;1703789;82;21704;-66
2023/04/07 01:38:51;;;;;;;4.92;4.53;;;;;;;3.53;69.41;100028.14;1708421;82;21097;-66
2023/04/07 01:41:18;;;;;;;;;;;;;;;3.47;69.78;100023.03;1711083;82;21060;-66
2023/04/07 01:43:46;;;;;;;4.20;3.83;;;;;;;3.34;69.41;100026.23;1707356;82;20103;-66
2023/04/07 01:46:14;;;;;;;5.30;4.80;;;;;;;3.25;69.66;100022.04;1706703;82;21489;-66
2023/04/07 01:48:42;;;;;;;5.78;4.87;;;;;;;3.23;70.45;100014.75;1706246;82;21029;-66
2023/04/07 01:51:10;;;;;;;;;;;;;;;3.30;70.62;100012.48;1710100;82;20958;-66
2023/04/07 01:53:37;;;;;;;5.10;4.10;;;;;;;3.38;71.17;100018.00;1710658;82;20135;-66
2023/04/07 01:56:05;;;;;;;3.98;3.58;;;;;;;3.38;70.26;100016.70;1708859;82;21136;-66
2023/04/07 01:58:31;;;;;;;5.47;4.22;;;;;;;3.31;70.14;100012.92;1717130;82;21021;-66
2023/04/07 02:00:58;;;;;;;6.23;4.60;;;;;;;3.17;70.36;100014.83;1703086;82;21056;-66
2023/04/07 02:03:31;;;;;;;5.20;4.43;;;;;;;3.22;71.09;100016.92;1758121;80;21143;-66
2023/04/07 02:06:01;;;;;;;5.35;4.70;;;;;;;3.25;70.92;100007.84;1763895;80;21656;-66
2023/04/07 02:08:29;;;;;;;5.10;4.33;;;;;;;3.23;70.96;100009.58;1764339;80;21033;-66
2023/04/07 02:10:58;;;;;;;7.28;5.10;;;;;;;3.27;70.91;100012.52;1769960;80;21080;-66
2023/04/07 02:13:26;;;;;;;5.87;4.72;;;;;;;3.36;71.57;100011.14;1766984;80;21021;-66
2023/04/07 02:15:55;;;;;;;5.97;4.95;;;;;;;3.42;72.64;100010.61;1766971;80;21050;-66
2023/04/07 02:18:22;;;;;;;6.20;5.28;;;;;;;3.42;71.51;100006.74;1766830;80;21439;-66
2023/04/07 02:20:51;;;;;;;5.70;4.47;;;;;;;3.46;71.21;100008.42;1750657;81;21493;-66
2023/04/07 02:23:17;;;;;;;5.83;5.08;;;;;;;3.40;70.49;100011.09;1746883;81;20951;-66
2023/04/07 02:25:44;;;;;;;6.53;4.83;;;;;;;3.40;71.41;100011.09;1749712;81;20962;-66
2023/04/07 02:28:10;;;;;;;6.78;5.08;;;;;;;3.46;71.15;100026.50;1747838;79;21153;-66
2023/04/07 02:30:37;;;;;;;6.08;5.03;;;;;;;3.40;72.03;100021.42;1750391;81;20965;-66
2023/04/07 02:33:03;;;;;;;5.65;4.70;;;;;;;3.43;71.68;100018.80;1750978;81;20951;-66
2023/04/07 02:35:30;;;;;;;8.25;5.60;;;;;;;3.50;71.69;100013.95;1738951;81;20980;-66
2023/04/07 02:37:56;;;;;;;7.17;5.58;;;;;;;3.48;71.98;100018.30;1750083;80;21026;-66
2023/04/07 02:40:24;;;;;;;7.87;5.80;;;;;;;3.44;71.81;100019.20;1753213;80;21565;-66
2023/04/07 02:42:50;;;;;;;6.95;5.17;;;;;;;3.48;72.17;100019.59;1755701;80;21549;-66
2023/04/07 02:45:16;;;;;;;7.55;5.40;;;;;;;3.55;72.56;100010.88;1761003;81;21490;-66
2023/04/07 02:47:43;;;;;;;6.55;5.55;;;;;;;3.57;72.55;100016.87;1756154;79;21072;-66
2023/04/07 02:50:10;;;;;;;9.25;5.70;;;;;;;3.58;72.41;100014.70;1774705;80;21027;-67
2023/04/07 02:52:36;;;;;;;6.85;5.50;;;;;;;3.65;72.44;100014.20;1762339;80;20970;-66
2023/04/07 02:55:03;;;;;;;7.45;5.28;;;;;;;3.73;72.47;100013.20;1778487;80;20942;-66
2023/04/07 02:57:29;;;;;;;5.93;4.30;;;;;;;3.73;72.12;100014.50;1746041;81;20945;-66
2023/04/07 02:59:57;;;;;;;6.65;5.42;;;;;;;3.61;71.71;100015.95;1752025;81;20961;-66
2023/04/07 03:02:24;;;;;;;11.88;5.17;;;;;;;3.46;72.17;100013.59;1755460;81;21010;-66
2023/04/07 03:04:52;;;;;;;7.40;5.95;;;;;;;3.43;72.93;100020.09;1755011;81;20988;-66
2023/04/07 03:07:17;;;;;;;;;;;;;;;3.38;72.84;100023.16;1757000;81;21051;-66
2023/04/07 03:09:44;;;;;;;5.67;4.87;;;;;;;3.41;73.24;100020.53;1757488;81;20170;-66
2023/04/07 03:12:10;;;;;;;6.47;5.55;;;;;;;3.44;73.44;100018.76;1745304;80;21052;-66
2023/04/07 03:14:37;;;;;;;6.40;5.45;;;;;;;3.36;74.29;100021.47;1759105;80;20935;-66
2023/04/07 03:17:04;;;;;;;8.03;6.25;;;;;;;3.38;73.37;100024.45;1751339;80;21022;-66
2023/04/07 03:19:30;;;;;;;5.95;5.35;;;;;;;3.42;73.47;100027.39;1748610;80;21028;-65
2023/04/07 03:21:57;;;;;;;6.33;5.35;;;;;;;3.47;73.74;100026.45;1763486;80;21451;-66
2023/04/07 03:24:23;;;;;;;7.15;5.97;;;;;;;3.52;73.86;100014.34;1756040;80;21029;-66
2023/04/07 03:26:50;;;;;;;7.90;5.90;;;;;;;3.59;72.83;100028.05;1763519;80;20951;-66
2023/04/07 03:29:16;;;;;;;7.83;6.70;;;;;;;3.47;72.56;100025.61;1770102;80;20947;-66
2023/04/07 03:31:43;;;;;;;9.65;6.72;;;;;;;3.41;73.31;100012.80;1769945;80;20990;-66
2023/04/07 03:34:09;;;;;;;8.78;7.15;;;;;;;3.52;73.57;100005.75;1775649;80;21041;-66
2023/04/07 03:36:35;;;;;;;8.20;6.55;;;;;;;3.59;73.62;100008.23;1778846;80;20958;-66
2023/04/07 03:39:02;;;;;;;9.58;7.08;;;;;;;3.66;73.66;100006.41;1782566;80;20994;-66
2023/04/07 03:41:29;;;;;;;9.65;7.62;;;;;;;3.64;73.52;100000.44;1764635;80;20945;-66
2023/04/07 03:43:55;;;;;;;8.70;7.25;;;;;;;3.69;73.81;100008.94;1772499;78;21499;-66
2023/04/07 03:46:25;;;;;;;8.10;7.20;;;;;;;3.75;73.98;100011.46;1780040;80;21040;-66
2023/04/07 03:48:51;;;;;;;8.23;7.17;;;;;;;3.80;73.74;100001.89;1757864;80;21435;-66
2023/04/07 03:51:17;;;;;;;10.00;8.08;;;;;;;3.86;73.97;99997.51;1764809;80;21002;-66
2023/04/07 03:53:44;;;;;;;10.35;7.65;;;;;;;3.91;74.28;99998.30;1764909;80;20955;-66
2023/04/07 03:56:10;;;;;;;9.13;7.75;;;;;;;3.91;74.22;99995.72;1758195;80;21008;-66
2023/04/07 03:58:36;;;;;;;8.88;6.78;;;;;;;3.89;73.98;99997.46;1763995;79;21482;-66
2023/04/07 04:01:02;;;;;;;8.50;7.20;;;;;;;3.95;74.07;100000.82;1760704;80;22495;-67
2023/04/07 04:03:29;;;;;;;7.58;6.55;;;;;;;3.93;73.63;99999.14;1765552;80;20987;-66
2023/04/07 04:05:55;;;;;;;7.33;6.47;;;;;;;3.89;73.68;100002.63;1759638;80;21000;-66
2023/04/07 04:08:21;;;;;;;8.70;7.10;;;;;;;3.84;74.09;99996.67;1760456;80;21070;-66
2023/04/07 04:10:47;;;;;;;8.33;6.95;;;;;;;3.86;74.17;100003.97;1762683;80;21077;-66
2023/04/07 04:13:14;;;;;;;9.48;7.47;;;;;;;3.86;74.51;99999.65;1761027;80;21031;-67
2023/04/07 04:15:40;;;;;;;6.35;5.65;;;;;;;3.85;74.59;100008.73;1765719;80;21783;-66
2023/04/07 04:18:09;;;;;;;6.62;5.95;;;;;;;3.73;74.48;99997.71;1760268;80;21023;-66
2023/04/07 04:20:36;;;;;;;7.03;5.90;;;;;;;3.68;74.29;100002.08;1762348;80;21045;-66
2023/04/07 04:23:03;;;;;;;8.03;6.42;;;;;;;3.67;74.42;100009.42;1760167;80;20895;-66
2023/04/07 04:25:29;;;;;;;7.47;6.65;;;;;;;3.73;74.45;100010.63;1767728;80;21581;-66
2023/04/07 04:27:55;;;;;;;9.70;6.60;;;;;;;3.70;74.76;100015.84;1768009;80;21496;-66
2023/04/07 04:30:23;;;;;;;8.08;6.65;;;;;;;3.71;74.42;100013.66;1736604;80;21124;-66
2023/04/07 04:32:50;;;;;;;7.85;6.97;;;;;;;3.63;74.16;100024.53;1764939;80;20952;-66
2023/04/07 04:35:18;;;;;;;7.22;6.53;;;;;;;3.74;74.82;100018.77;1764228;80;21085;-66
2023/04/07 04:37:44;;;;;;;6.50;5.90;;;;;;;3.85;74.49;100022.94;1763536;79;21536;-66
2023/04/07 04:40:14;;;;;;;7.45;6.75;;;;;;;3.63;73.72;100027.11;1763414;80;21475;-66
2023/04/07 04:42:40;;;;;;;6.62;5.80;;;;;;;3.65;74.85;100020.20;1763836;80;21015;-66
2023/04/07 04:45:08;;;;;;;5.97;5.37;;;;;;;3.77;75.02;100022.60;1763662;80;21068;-66
2023/04/07 04:47:34;;;;;;;6.72;6.05;;;;;;;3.78;75.23;100023.45;1765327;80;21141;-65
2023/04/07 04:50:00;;;;;;;7.65;6.83;;;;;;;3.77;75.02;100029.50;1764012;80;21035;-66
2023/04/07 04:52:29;;;;;;;5.92;5.33;;;;;;;3.75;75.28;100032.12;1763744;80;21014;-61
2023/04/07 04:54:55;;;;;;;10.80;5.37;;;;;;;3.69;74.35;100024.44;1765691;80;21047;-63
2023/04/07 04:57:21;;;;;;;6.50;5.90;;;;;;;3.58;74.75;100028.90;1762849;80;20976;-62
2023/04/07 04:59:49;;;;;;;5.42;4.92;;;;;;;3.64;75.41;100026.26;1763990;80;21604;-63
2023/04/07 05:02:15;;;;;;;6.97;6.03;;;;;;;3.62;75.49;100035.75;1760756;80;21156;-62
2023/04/07 05:04:42;;;;;;;6.80;5.55;;;;;;;3.65;76.42;100027.11;1761463;80;20958;-63
2023/04/07 05:07:09;;;;;;;6.33;5.72;;;;;;;3.67;76.48;100028.80;1760943;80;20959;-65
2023/04/07 05:09:35;;;;;;;6.65;5.70;;;;;;;3.76;75.85;100029.94;1761083;80;20963;-64
2023/04/07 05:12:01;;;;;;;6.42;5.80;;;;;;;3.73;76.11;100026.12;1763671;80;21509;-64
2023/04/07 05:14:28;;;;;;;8.18;7.33;;;;;;;3.85;76.20;100019.06;1763459;80;21598;-60
2023/04/07 05:16:54;;;;;;;9.25;6.15;;;;;;;3.96;76.37;100012.84;1763868;80;20970;-64
2023/04/07 05:19:20;;;;;;;6.22;5.33;;;;;;;4.06;76.74;100021.30;1766016;80;20943;-63
2023/04/07 05:21:47;;;;;;;6.45;5.75;;;;;;;4.12;75.87;100020.37;1760714;80;21014;-62
2023/04/07 05:24:16;;;;;;;6.15;5.55;;;;;;;4.02;76.46;100019.65;1761890;80;20971;-62
2023/04/07 05:26:43;;;;;;;8.58;6.20;;;;;;;4.03;76.35;100011.01;1768763;80;21061;-62
2023/04/07 05:29:09;;;;;;;6.40;5.60;;;;;;;4.11;76.67;100013.03;1766578;80;21050;-63
2023/04/07 05:31:36;;;;;;;5.80;5.22;;;;;;;4.22;76.47;100008.55;1766034;80;21591;-62
2023/04/07 05:34:05;;;;;;;6.55;5.70;;;;;;;4.28;76.59;100000.27;1763045;80;20976;-62
2023/04/07 05:36:33;;;;;;;6.28;5.08;;;;;;;4.29;76.73;100008.02;1767496;80;20970;-62
2023/04/07 05:38:59;;;;;;;5.45;4.95;;;;;;;4.22;76.41;100002.08;1770029;80;21053;-62
2023/04/07 05:41:27;;;;;;;6.72;5.85;;;;;;;4.16;76.32;100004.77;1765924;80;21475;-63
2023/04/07 05:43:53;;;;;;;6.78;5.75;;;;;;;4.13;76.65;100006.12;1767901;80;21026;-63
2023/04/07 05:46:19;;;;;;;6.25;5.45;;;;;;;4.21;77.09;100006.84;1764087;80;21085;-63
2023/04/07 05:48:46;;;;;;;7.15;5.37;;;;;;;4.28;76.85;100008.03;1762889;80;21513;-62
2023/04/07 05:51:17;;;;;;;10.05;6.05;;;;;;;4.15;75.88;100008.25;1759821;80;21089;-61
2023/04/07 05:53:45;;;;;;;4.97;4.47;;;;;;;4.04;76.97;100008.86;1736345;80;21298;-62
2023/04/07 05:56:13;;;;;;;6.55;5.03;;;;;;;4.03;76.94;100011.01;1740792;80;21009;-61
2023/04/07 05:58:39;;;;;;;9.98;5.05;;;;;;;4.04;77.50;100003.25;1763742;80;21620;-62
2023/04/07 06:01:05;;;;;;;6.78;4.95;;;;;;;4.12;78.34;100008.74;1763656;80;22263;-62
2023/04/07 06:03:32;;;;;;;6.40;5.65;;;;;;;4.15;77.62;100001.78;1771144;80;21499;-62
2023/04/07 06:05:58;;;;;;;6.40;4.70;;;;;;;4.16;77.58;100006.52;1771518;80;21007;-61
2023/04/07 06:08:26;;;;;;;5.10;4.58;;;;;;;4.19;78.28;100012.47;1766674;80;20947;-63
2023/04/07 06:10:52;;;;;;;5.25;4.58;;;;;;;4.21;77.95;100008.14;1763661;80;21039;-65
2023/04/07 06:13:18;;;;;;;5.90;5.03;;;;;;;4.25;77.99;100000.73;1762486;80;20972;-64
2023/04/07 06:15:44;;;;;;;4.75;4.33;;;;;;;4.31;78.22;100002.80;1765154;80;20902;-61
2023/04/07 06:18:13;;;;;;;5.87;4.60;;;;;;;4.27;77.43;100007.19;1765461;80;21075;-61
2023/04/07 06:20:39;;;;;;;6.83;5.08;;;;;;;4.11;76.98;100007.86;1763475;80;21047;-62
2023/04/07 06:23:06;;;;;;;5.97;4.58;;;;;;;4.10;78.38;100009.20;1766644;80;21140;-64
2023/04/07 06:25:37;;;;;;;4.67;4.10;;;;;;;4.04;78.03;100006.28;1765838;79;20960;-63
2023/04/07 06:28:01;;;;;;;5.78;4.62;;;;;;;3.87;77.39;100012.16;1732551;80;21037;-63
2023/04/07 06:30:28;;;;;;;10.38;5.40;;;;;;;3.74;77.08;100022.65;1766008;80;21092;-64
2023/04/07 06:32:54;;;;;;;5.28;4.60;;;;;;;3.68;78.57;100014.14;1764417;80;21050;-63
2023/04/07 06:35:25;;;;;;;5.47;4.62;;;;;;;3.76;78.30;100025.22;1770977;80;21010;-63
2023/04/07 06:37:54;;;;;;;5.35;4.65;;;;;;;3.65;78.63;100024.52;1766517;79;21022;-63
2023/04/07 06:40:20;;;;;;;5.97;4.78;;;;;;;3.71;78.88;100030.44;1768423;80;21047;-63
2023/04/07 06:42:48;;;;;;;6.95;5.90;;;;;;;3.76;78.73;100030.39;1769359;80;21048;-63
2023/04/07 06:45:14;;;;;;;6.55;5.70;;;;;;;3.85;79.54;100026.81;1764969;80;21018;-64
2023/04/07 06:47:47;;;;;;;8.23;5.75;;;;;;;4.00;79.71;100023.98;1765746;80;21714;-63
2023/04/07 06:50:12;;;;;;;7.62;5.95;;;;;;;3.96;79.74;100018.02;1758532;80;20979;-63
2023/04/07 06:52:39;;;;;;;7.22;5.87;;;;;;;4.02;79.67;100022.23;1764308;80;21533;-63
2023/04/07 06:55:06;;;;;;;6.97;6.25;;;;;;;4.18;80.14;100017.23;1765626;80;20974;-63
2023/04/07 06:57:34;;;;;;;6.08;5.47;;;;;;;4.38;80.61;100012.17;1762378;80;20923;-63
2023/04/07 07:00:09;;;;;;;7.62;5.75;;;;;;;4.46;79.32;100014.19;1767634;80;21500;-63
2023/04/07 07:02:40;;;;;;;12.15;6.20;;;;;;;4.47;79.58;100015.88;1764919;80;21062;-64
2023/04/07 07:05:05;;;;;;;7.37;5.83;;;;;;;4.50;79.63;100026.17;1767739;80;21002;-63
2023/04/07 07:07:34;;;;;;;6.80;5.75;;;;;;;4.44;79.38;100030.16;1762908;80;21006;-63
2023/04/07 07:10:02;;;;;;;6.85;5.35;;;;;;;4.46;80.30;100028.41;1764076;80;21035;-64
2023/04/07 07:12:31;;;;;;;9.83;6.85;;;;;;;4.51;79.58;100023.14;1764296;80;21528;-63
2023/04/07 07:14:57;;;;;;;6.83;5.92;;;;;;;4.44;79.36;100027.58;1760165;80;21066;-63
2023/04/07 07:17:24;;;;;;;10.63;6.53;;;;;;;4.50;79.95;100030.05;1765349;80;21032;-64
2023/04/07 07:19:52;;;;;;;5.37;4.75;;;;;;;4.63;79.98;100038.01;1761857;80;21119;-63
2023/04/07 07:22:18;;;;;;;8.25;6.42;;;;;;;4.54;80.25;100036.89;1767472;80;20942;-64
2023/04/07 07:24:49;;;;;;;7.15;5.42;;;;;;;4.48;80.09;100043.44;1761027;80;21496;-63
2023/04/07 07:27:16;;;;;;;7.55;6.08;;;;;;;4.59;80.57;100035.05;1764559;80;21062;-64
2023/04/07 07:29:42;;;;;;;5.85;5.12;;;;;;;4.67;80.15;100040.94;1763308;80;21006;-64
2023/04/07 07:32:08;;;;;;;5.78;4.45;;;;;;;4.63;78.53;100048.36;1768651;80;22350;-64
2023/04/07 07:34:35;;;;;;;6.10;5.37;;;;;;;4.45;79.74;100049.95;1761201;79;21041;-64
2023/04/07 07:37:01;;;;;;;6.97;5.92;;;;;;;4.33;79.62;100048.88;1761786;80;20909;-64
2023/04/07 07:39:30;;;;;;;8.53;6.15;;;;;;;4.44;80.05;100052.98;1769122;79;21018;-64
2023/04/07 07:41:56;;;;;;;8.63;5.95;;;;;;;4.56;80.11;100048.03;1756482;80;21074;-63
2023/04/07 07:44:22;;;;;;;7.65;6.10;;;;;;;4.58;79.36;100061.80;1762187;80;20978;-64
2023/04/07 07:46:49;;;;;;;8.45;6.47;;;;;;;4.56;79.27;100053.66;1758904;80;21052;-63
2023/04/07 07:49:16;;;;;;;10.38;6.20;;;;;;;4.53;79.71;100058.44;1760349;79;21081;-64
2023/04/07 07:51:44;;;;;;;7.85;5.67;;;;;;;4.62;79.99;100067.77;1766670;80;20994;-64
2023/04/07 07:54:10;;;;;;;6.92;5.08;;;;;;;4.60;79.54;100060.05;1758105;80;20971;-64
2023/04/07 07:56:37;;;;;;;7.22;5.58;;;;;;;4.76;80.89;100064.94;1766612;80;20992;-63
2023/04/07 07:59:06;;;;;;;6.95;5.70;;;;;;;4.87;81.28;100057.83;1763730;80;21127;-64
2023/04/07 08:01:33;;;;;;;6.83;5.67;;;;;;;4.96;81.04;100058.98;1764560;80;21233;-64
2023/04/07 08:04:01;;;;;;;6.62;5.05;;;;;;;5.18;81.69;100075.36;1766925;80;20937;-64
2023/04/07 08:06:28;;;;;;;5.78;4.87;;;;;;;5.03;80.17;100064.43;1761030;80;20966;-64
2023/04/07 08:08:54;;;;;;;6.33;5.50;;;;;;;4.66;79.72;100070.28;1763477;80;21050;-64
2023/04/07 08:11:20;;;;;;;6.47;5.22;;;;;;;4.66;79.72;100070.28;1764915;80;21006;-63
2023/04/07 08:13:47;;;;;;;9.30;6.58;;;;;;;4.57;79.98;100073.04;1760398;80;21007;-64
2023/04/07 08:16:13;;;;;;;7.28;6.20;;;;;;;4.64;81.03;100074.63;1764374;79;21525;-64
2023/04/07 08:18:39;;;;;;;7.28;5.67;;;;;;;4.84;82.00;100068.24;1761498;80;21521;-63
2023/04/07 08:21:06;;;;;;;6.65;5.70;;;;;;;5.03;81.74;100070.91;1759686;80;20990;-63
2023/04/07 08:23:33;;;;;;;9.13;7.08;;;;;;;5.19;81.24;100069.33;1755526;80;21970;-63
2023/04/07 08:26:01;;;;;;;10.53;6.67;;;;;;;5.10;80.77;100073.80;1757064;81;20937;-63
2023/04/07 08:28:28;;;;;;;8.00;5.83;;;;;;;5.14;81.30;100074.58;1750791;81;21049;-64
2023/04/07 08:30:56;;;;;;;8.15;6.55;;;;;;;5.37;81.84;100063.77;1752440;81;21032;-65
2023/04/07 08:33:24;;;;;;;7.22;6.47;;;;;;;5.40;80.63;100063.70;1754081;80;21024;-64
2023/04/07 08:35:52;;;;;;;7.87;6.00;;;;;;;5.41;81.81;100069.30;1752743;80;21519;-65
2023/04/07 08:38:19;;;;;;;11.28;7.10;;;;;;;5.68;81.90;100065.70;1751396;80;21098;-63
2023/04/07 08:40:53;;;;;;;6.93;6.17;;;;;;;5.74;81.41;100060.38;1749518;81;21039;-63
2023/04/07 08:43:20;;;;;;;7.35;5.85;;;;;;;5.82;81.51;100055.88;1751089;81;21013;-63
2023/04/07 08:45:53;;;;;;;8.65;6.97;;;;;;;6.02;81.30;100053.75;1749268;80;21001;-64
2023/04/07 08:48:24;;;;;;;8.28;6.45;;;;;;;6.12;81.72;100056.96;1752624;80;20953;-63
2023/04/07 08:50:51;;;;;;;7.65;6.50;;;;;;;6.36;81.89;100056.83;1751803;80;21042;-63
2023/04/07 08:53:20;;;;;;;7.12;6.30;;;;;;;6.48;81.75;100056.51;1760735;81;21614;-63
2023/04/07 08:55:48;;;;;;;7.80;6.35;;;;;;;6.62;81.54;100054.02;1755070;80;21054;-62
2023/04/07 08:58:16;;;;;;;9.90;7.10;;;;;;;6.84;81.86;100052.56;1755946;80;21139;-63
2023/04/07 09:00:47;;;;;;;;;;;;;;;7.03;81.68;100054.22;1757112;80;21002;-63
2023/04/07 09:03:16;;;;;;;9.45;7.87;;;;;;;7.15;81.13;100051.73;1733192;81;20200;-63
2023/04/07 09:05:50;;;;;;;10.15;7.97;;;;;;;7.13;80.94;100049.61;1747875;81;21080;-63
2023/04/07 09:08:12;;;;;;;8.88;6.97;;;;;;;7.24;81.24;100051.45;1747340;80;21067;-64
2023/04/07 09:10:39;;;;;;;6.62;5.92;;;;;;;7.44;80.74;100052.64;1754501;80;20983;-63
2023/04/07 09:13:05;;;;;;;6.70;5.83;;;;;;;7.38;80.58;100055.81;1757338;80;21001;-63
2023/04/07 09:15:32;;;;;;;9.73;7.25;;;;;;;7.21;80.01;100047.66;1748423;80;21049;-63
2023/04/07 09:17:58;;;;;;;9.48;6.92;;;;;;;7.17;80.53;100055.14;1746235;81;21099;-63
2023/04/07 09:20:25;;;;;;;9.55;7.55;;;;;;;7.32;81.12;100057.29;1745223;81;20930;-63
2023/04/07 09:22:51;;;;;;;9.38;6.83;;;;;;;7.40;80.67;100052.73;1749806;81;21011;-62
2023/04/07 09:25:28;;;;;;;9.70;7.40;;;;;;;7.30;80.41;100049.98;1748963;81;20944;-62
2023/04/07 09:28:01;;;;;;;10.18;7.95;;;;;;;7.31;80.28;100055.59;1752093;81;21008;-63
2023/04/07 09:30:29;;;;;;;8.55;7.65;;;;;;;7.20;79.61;100049.86;1745971;81;21056;-64
2023/04/07 09:32:57;;;;;;;10.35;7.45;;;;;;;6.98;79.55;100051.34;1745173;81;21008;-62
2023/04/07 09:35:27;;;;;;;11.48;8.20;;;;;;;6.87;79.81;100052.48;1743920;81;21103;-63
2023/04/07 09:38:08;;;;;;;10.48;7.90;;;;;;;7.04;81.43;100045.98;1745230;81;21043;-62
2023/04/07 09:40:36;;;;;;;10.63;8.20;;;;;;;7.31;81.60;100042.61;1746408;81;21627;-64
2023/04/07 09:43:04;;;;;;;9.35;8.15;;;;;;;7.67;81.65;100037.20;1744564;81;21000;-64
2023/04/07 09:45:31;;;;;;;13.72;10.25;;;;;;;7.99;81.51;100035.38;1746240;81;21011;-68
2023/04/07 09:47:58;;;;;;;12.10;8.30;;;;;;;8.35;81.71;100029.89;1747921;81;21028;-63
2023/04/07 09:50:35;;;;;;;11.22;8.05;;;;;;;8.60;81.10;100033.39;1743838;81;21110;-63
2023/04/07 09:53:02;;;;;;;9.55;8.55;;;;;;;8.69;80.18;100030.47;1745880;80;20991;-63
2023/04/07 09:55:29;;;;;;;;;;;;;;;8.80;80.23;100027.95;1749895;81;21058;-63
2023/04/07 09:57:56;;;;;;;12.07;8.03;;;;;;;8.93;80.37;100025.29;1748951;81;20174;-63
2023/04/07 10:00:23;;;;;;;11.15;8.60;;;;;;;9.17;80.39;100024.41;1747943;81;20977;-63
2023/04/07 10:02:51;;;;;;;8.75;7.50;;;;;;;9.35;80.61;100019.42;1744035;81;21011;-66
2023/04/07 10:05:23;;;;;;;9.48;7.62;;;;;;;9.56;80.35;100023.83;1752054;81;21048;-63
2023/04/07 10:07:50;;;;;;;8.45;7.22;;;;;;;9.69;79.94;100025.95;1743575;81;21079;-63
2023/04/07 10:10:16;;;;;;;8.88;7.53;;;;;;;9.88;80.37;100020.88;1744137;81;21024;-63
2023/04/07 10:12:44;;;;;;;11.28;7.97;;;;;;;10.05;79.92;100023.23;1747580;81;21028;-63
2023/04/07 10:15:18;;;;;;;13.28;8.98;;;;;;;10.07;79.08;100025.30;1751414;81;20994;-63
2023/04/07 10:17:46;;;;;;;8.00;7.20;;;;;;;10.27;80.13;100024.52;1747737;81;20971;-63
2023/04/07 10:20:14;;;;;;;11.70;9.03;;;;;;;10.60;80.31;100023.18;1745121;81;20975;-63
2023/04/07 10:22:43;;;;;;;11.10;8.48;;;;;;;10.98;80.48;100030.21;1760610;79;21028;-63
2023/04/07 10:25:12;;;;;;;10.90;8.35;;;;;;;11.27;79.81;100033.28;1761335;80;21006;-63
2023/04/07 10:27:55;;;;;;;8.93;7.75;;;;;;;11.41;78.60;100033.50;1767586;80;21006;-62
2023/04/07 10:30:25;;;;;;;10.48;8.70;;;;;;;11.35;77.93;100033.79;1759346;79;21071;-63
2023/04/07 10:32:53;;;;;;;9.33;8.25;;;;;;;11.28;77.45;100029.73;1763112;80;21101;-63
2023/04/07 10:35:20;;;;;;;9.50;8.25;;;;;;;11.18;77.34;100033.70;1762288;80;21021;-64
2023/04/07 10:38:10;;;;;;;10.58;7.85;;;;;;;11.13;77.67;100012.15;1761481;80;21073;-63
2023/04/07 10:40:45;;;;;;;9.83;8.03;;;;;;;11.13;77.67;100012.15;1763356;79;20967;-62
2023/04/07 10:43:11;;;;;;;11.75;7.90;;;;;;;11.35;78.17;100028.56;1761325;80;20999;-63
2023/04/07 10:45:58;;;;;;;9.40;8.03;;;;;;;11.93;79.87;100030.27;1762636;80;21357;-62
2023/04/07 10:48:21;;;;;;;13.03;9.30;;;;;;;12.67;79.70;100030.08;1758557;80;22215;-64
2023/04/07 10:51:09;;;;;;;11.30;8.90;;;;;;;13.47;78.48;100025.92;1765117;80;21589;-63
2023/04/07 10:53:37;;;;;;;11.85;9.13;;;;;;;13.94;78.04;100022.42;1763870;80;21013;-63
2023/04/07 10:56:06;;;;;;;10.82;8.28;;;;;;;14.32;76.74;100019.41;1757937;80;21130;-63
2023/04/07 10:58:34;;;;;;;9.45;7.92;;;;;;;14.33;75.84;100017.14;1761897;80;21013;-64
2023/04/07 11:01:11;;;;;;;11.07;8.73;;;;;;;14.41;75.91;100016.23;1765005;80;21066;-67
2023/04/07 11:03:41;;;;;;;10.68;8.40;;;;;;;14.46;76.01;100011.56;1763651;80;20988;-64
2023/04/07 11:06:10;;;;;;;9.25;8.20;;;;;;;14.43;74.66;100024.04;1758504;79;20994;-63
2023/04/07 11:08:41;;;;;;;10.72;9.03;;;;;;;14.22;73.86;100026.11;1765363;80;20982;-63
2023/04/07 11:11:09;;;;;;;14.07;8.65;;;;;;;14.06;73.77;100027.00;1765344;80;20993;-63
2023/04/07 11:13:51;;;;;;;11.60;8.73;;;;;;;14.09;74.44;100032.08;1761669;80;21510;-63
2023/04/07 11:16:20;;;;;;;9.75;7.67;;;;;;;14.18;74.63;100024.61;1763618;80;21544;-63
2023/04/07 11:18:49;;;;;;;10.15;7.92;;;;;;;14.38;74.83;100032.17;1761911;80;21591;-63
2023/04/07 11:21:18;;;;;;;8.65;7.75;;;;;;;14.50;74.25;100024.04;1760539;80;21120;-65
2023/04/07 11:23:46;;;;;;;9.45;7.70;;;;;;;14.59;73.98;100025.31;1759968;80;21105;-62
2023/04/07 11:26:16;;;;;;;12.18;8.65;;;;;;;14.82;73.74;100026.13;1760795;80;21512;-62
2023/04/07 11:28:47;;;;;;;8.88;7.85;;;;;;;14.96;73.14;100022.19;1762359;80;21029;-64
2023/04/07 11:31:27;;;;;;;9.93;7.97;;;;;;;15.04;73.10;100019.54;1763749;79;21026;-70
2023/04/07 11:33:56;;;;;;;9.13;7.58;;;;;;;15.30;73.47;100013.53;1761756;80;21596;-62
2023/04/07 11:36:28;;;;;;;10.75;9.33;;;;;;;15.75;72.01;100014.23;1769647;80;21076;-62